Time;durP1;ratioP1;P1;durP2;ratioP2;P2;SDS_P1;SDS_P2;PMS_P1;PMS_P2;Temp;Humidity;BMP_temperature;BMP_pressure;BME280_temperature;BME280_humidity;BME280_pressure;Samples;Min_cycle;Max_cycle;Signal;HPM_P1;HPM_P2
2021/04/26 00:02:06;;;;;;;27.40;9.93;;;;;;;3.33;46.79;101285.41;5175491;55;1136451;-71
2021/04/26 00:07:13;;;;;;;20.67;8.30;;;;;;;3.33;47.10;101281.48;5175444;56;1136768;-72
2021/04/26 00:12:19;;;;;;;20.20;8.13;;;;;;;3.36;47.34;101277.45;5175440;56;1136614;-74
2021/04/26 00:17:24;;;;;;;11.80;6.27;;;;;;;3.36;47.52;101275.66;5175458;56;1136755;-74
2021/04/26 00:22:30;;;;;;;14.03;6.03;;;;;;;3.36;47.46;101276.98;5175369;56;1136837;-70
2021/04/26 00:27:37;;;;;;;18.20;7.40;;;;;;;3.36;47.34;101277.45;5175368;56;1136438;-74
2021/04/26 00:32:43;;;;;;;22.43;9.00;;;;;;;3.32;47.72;101278.02;5175397;56;1136333;-73
2021/04/26 00:37:51;;;;;;;17.17;6.80;;;;;;;3.26;47.79;101279.53;5175457;56;1136639;-71
2021/04/26 00:42:56;;;;;;;12.87;5.07;;;;;;;3.21;47.99;101285.84;5175722;56;1136442;-73
2021/04/26 00:48:05;;;;;;;10.93;5.13;;;;;;;3.00;47.51;101283.05;5175690;56;1136444;-72
2021/04/26 00:53:13;;;;;;;11.13;5.37;;;;;;;2.80;47.94;101284.17;5175436;56;1136664;-71
2021/04/26 00:58:18;;;;;;;13.60;5.70;;;;;;;2.77;48.54;101277.73;5175114;56;1136700;-73
2021/04/26 01:03:24;;;;;;;12.47;5.53;;;;;;;2.78;48.83;101278.99;5175489;56;1136593;-71
2021/04/26 01:08:30;;;;;;;11.83;5.43;;;;;;;2.82;48.76;101272.77;5175528;56;1136358;-72
2021/04/26 01:14:16;;;;;;;12.83;5.13;;;;;;;2.82;48.77;101273.22;5175690;56;1136368;-73
2021/04/26 01:19:50;;;;;;;14.73;6.00;;;;;;;2.73;48.70;101273.09;5175269;56;1136828;-71
2021/04/26 01:25:12;;;;;;;14.07;5.90;;;;;;;2.58;49.02;101272.28;5175489;56;1136692;-73
2021/04/26 01:30:26;;;;;;;14.23;5.30;;;;;;;2.59;49.33;101259.64;5175285;56;1136203;-71
2021/04/26 01:35:47;;;;;;;15.18;5.85;;;;;;;2.64;49.33;101265.98;5176177;56;1136294;-74
2021/04/26 01:40:54;;;;;;;12.00;5.37;;;;;;;2.64;49.32;101260.77;5160402;56;1136335;-73
2021/04/26 01:46:04;;;;;;;12.67;6.43;;;;;;;2.62;49.36;101263.42;5175432;56;1136297;-70
2021/04/26 01:51:12;;;;;;;10.97;4.27;;;;;;;2.40;49.19;101261.13;5143861;56;1136223;-70
2021/04/26 01:56:20;;;;;;;13.53;4.90;;;;;;;2.02;49.63;101266.22;5175327;56;1136717;-74
2021/04/26 02:01:27;;;;;;;10.97;4.60;;;;;;;1.67;50.79;101266.84;5174809;56;1136223;-74
2021/04/26 02:06:37;;;;;;;15.70;5.83;;;;;;;1.51;51.14;101262.96;5175562;56;1136168;-73
2021/04/26 02:11:48;;;;;;;14.57;6.03;;;;;;;1.52;51.91;101259.91;5173500;56;1136340;-70
2021/04/26 02:16:56;;;;;;;11.67;5.70;;;;;;;1.57;52.34;101251.48;5175456;56;1136622;-71
2021/04/26 02:22:03;;;;;;;18.87;6.10;;;;;;;1.68;52.62;101250.27;5175379;56;1136470;-73
2021/04/26 02:27:11;;;;;;;14.47;6.27;;;;;;;1.78;52.78;101239.59;5175274;56;1136377;-72
2021/04/26 02:32:21;;;;;;;21.10;6.13;;;;;;;1.79;52.72;101232.17;5175131;56;1136343;-69
2021/04/26 02:37:54;;;;;;;16.57;6.70;;;;;;;1.82;53.06;101225.56;5173021;56;1136320;-73
2021/04/26 02:43:01;;;;;;;12.10;5.83;;;;;;;1.86;53.12;101225.84;5173212;56;1136442;-72
2021/04/26 02:48:10;;;;;;;16.77;5.53;;;;;;;1.70;52.74;101219.80;5175027;56;1136908;-72
2021/04/26 02:53:19;;;;;;;43.07;13.50;;;;;;;1.42;53.30;101216.29;5174559;56;1136566;-71
2021/04/26 02:58:28;;;;;;;26.37;8.80;;;;;;;1.17;53.90;101216.59;5178014;56;1138790;-70
2021/04/26 03:03:36;;;;;;;22.73;8.23;;;;;;;1.07;54.46;101215.97;5175220;56;1136726;-72
2021/04/26 03:08:46;;;;;;;29.93;9.53;;;;;;;1.00;54.81;101219.20;5175340;56;1136659;-71
2021/04/26 03:13:51;;;;;;;22.10;7.20;;;;;;;0.97;54.96;101219.73;5175837;56;1136865;-73
2021/04/26 03:18:57;;;;;;;31.17;10.00;;;;;;;0.96;55.05;101216.27;5177375;56;1136894;-71
2021/04/26 03:24:05;;;;;;;161.37;33.10;;;;;;;0.92;55.15;101211.17;5184791;56;1138485;-73
2021/04/26 03:29:17;;;;;;;74.27;17.40;;;;;;;0.81;55.35;101219.73;5184528;56;1140774;-74
2021/04/26 03:34:24;;;;;;;72.30;21.30;;;;;;;0.67;55.64;101220.95;5185105;56;1138501;-73
2021/04/26 03:39:30;;;;;;;68.23;17.70;;;;;;;0.68;56.26;101223.95;5184627;56;1138773;-72
2021/04/26 03:44:37;;;;;;;17.47;6.80;;;;;;;0.58;56.44;101224.23;5184541;56;1138264;-73
2021/04/26 03:49:53;;;;;;;32.58;10.45;;;;;;;0.47;56.62;101230.99;5180317;56;1136567;-70
2021/04/26 03:55:20;;;;;;;34.50;10.87;;;;;;;0.44;57.01;101225.89;5184873;56;1138936;-73
2021/04/26 04:00:27;;;;;;;20.07;8.47;;;;;;;0.49;57.38;101224.45;5184087;56;1138888;-72
2021/04/26 04:05:37;;;;;;;33.47;10.03;;;;;;;0.52;57.40;101229.59;5182868;56;1136732;-71
2021/04/26 04:10:44;;;;;;;103.33;30.57;;;;;;;0.52;57.45;101227.84;5178831;56;1138738;-72
2021/04/26 04:16:07;;;;;;;23.07;8.53;;;;;;;0.64;57.69;101222.77;5183665;56;1140886;-73
2021/04/26 04:21:13;;;;;;;18.47;8.23;;;;;;;0.72;57.60;101223.88;5184259;56;1136651;-72
2021/04/26 04:26:20;;;;;;;37.13;12.77;;;;;;;0.70;57.83;101230.42;5184310;56;1136932;-73
2021/04/26 04:31:28;;;;;;;26.73;9.67;;;;;;;0.58;58.14;101230.30;5183277;56;1138677;-74
2021/04/26 04:36:35;;;;;;;27.50;9.00;;;;;;;0.53;58.59;101231.30;5175892;56;1136651;-72
2021/04/26 04:41:58;;;;;;;17.77;8.67;;;;;;;0.50;58.78;101233.97;5184868;56;1136664;-72
2021/04/26 04:47:05;;;;;;;27.13;9.10;;;;;;;0.55;59.40;101235.58;5129533;55;1136739;-71
2021/04/26 04:52:12;;;;;;;19.47;6.23;;;;;;;0.63;59.68;101234.92;5105961;56;1136383;-71
2021/04/26 04:57:18;;;;;;;32.53;16.03;;;;;;;0.67;59.81;101230.05;5120846;56;1136583;-70
2021/04/26 05:02:24;;;;;;;17.37;8.13;;;;;;;0.72;60.04;101237.76;5151159;56;1138471;-71
2021/04/26 05:07:47;;;;;;;28.33;8.13;;;;;;;0.81;60.59;101235.34;5154917;56;1136637;-71
2021/04/26 05:13:11;;;;;;;18.40;6.77;;;;;;;0.87;60.61;101228.25;5184009;56;1136530;-72
2021/04/26 05:18:18;;;;;;;15.57;5.37;;;;;;;0.94;61.21;101228.47;5184013;56;1136438;-72
2021/04/26 05:23:24;;;;;;;11.07;5.67;;;;;;;1.00;60.93;101227.47;5171429;56;1136483;-71
2021/04/26 05:28:30;;;;;;;8.07;4.07;;;;;;;1.09;61.03;101223.30;5083146;56;1136427;-72
2021/04/26 05:33:37;;;;;;;17.80;5.57;;;;;;;1.26;61.06;101226.74;5089561;57;1134405;-71
2021/04/26 05:38:56;;;;;;;12.20;4.30;;;;;;;1.39;60.99;101228.09;5088174;57;1136186;-73
2021/04/26 05:44:02;;;;;;;14.43;4.53;;;;;;;1.51;61.08;101224.31;5092430;56;1136538;-71
2021/04/26 05:49:09;;;;;;;10.07;4.13;;;;;;;1.64;61.38;101218.69;5154174;56;1136504;-72
2021/04/26 05:54:15;;;;;;;8.37;3.93;;;;;;;1.80;61.20;101215.63;5083464;56;1136668;-72
2021/04/26 05:59:20;;;;;;;8.93;3.70;;;;;;;1.95;61.10;101213.40;5048980;57;1134379;-71
2021/04/26 06:04:26;;;;;;;12.40;4.87;;;;;;;2.15;61.02;101212.75;5044768;56;1134813;-71
2021/04/26 06:09:31;;;;;;;10.00;3.77;;;;;;;2.31;60.98;101212.66;5049686;56;1136612;-73
2021/04/26 06:14:37;;;;;;;12.80;4.40;;;;;;;2.50;60.97;101214.67;5006239;57;1136224;-72
2021/04/26 06:19:43;;;;;;;14.10;4.77;;;;;;;2.67;61.07;101214.52;5006582;56;1136362;-73
2021/04/26 06:24:49;;;;;;;8.10;2.77;;;;;;;2.91;60.88;101206.73;4999064;56;1136429;-71
2021/04/26 06:29:54;;;;;;;3.60;2.47;;;;;;;3.15;60.39;101200.65;4985053;57;1143146;-73
2021/04/26 06:35:01;;;;;;;5.08;2.98;;;;;;;3.32;60.28;101203.50;4984879;58;1134659;-72
2021/04/26 06:40:07;;;;;;;8.40;3.40;;;;;;;3.52;59.98;101208.83;4985385;57;1134624;-72
2021/04/26 06:45:20;;;;;;;3.40;1.80;;;;;;;3.75;60.35;101201.43;5008306;56;1134359;-72
2021/04/26 06:50:23;;;;;;;10.00;4.30;;;;;;;4.03;59.36;101215.59;5068139;56;1134291;-72
2021/04/26 06:55:29;;;;;;;11.27;2.70;;;;;;;4.27;60.38;101222.09;5067261;56;1136186;-72
2021/04/26 07:00:34;;;;;;;8.87;3.60;;;;;;;4.40;60.21;101229.84;5067031;56;1136297;-73
2021/04/26 07:05:40;;;;;;;12.17;4.57;;;;;;;4.27;60.28;101225.56;5067470;56;1134313;-74
2021/04/26 07:10:48;;;;;;;5.77;2.90;;;;;;;4.18;60.53;101227.22;5067314;56;1136331;-75
2021/04/26 07:15:54;;;;;;;9.30;2.47;;;;;;;4.15;60.71;101224.72;5071152;56;1134265;-74
2021/04/26 07:20:59;;;;;;;10.32;3.37;;;;;;;4.27;61.75;101226.87;5064782;55;1134670;-74
2021/04/26 07:26:05;;;;;;;7.47;3.83;;;;;;;4.53;61.66;101223.19;5071537;55;1136575;-74
2021/04/26 07:31:11;;;;;;;21.93;6.57;;;;;;;4.72;61.13;101215.41;5088795;57;1134419;-74
2021/04/26 07:36:17;;;;;;;9.47;2.90;;;;;;;4.94;60.72;101224.05;5088173;57;1136689;-73
2021/04/26 07:41:23;;;;;;;15.80;6.30;;;;;;;5.02;59.12;101219.34;5087196;56;1134580;-74
2021/04/26 07:46:28;;;;;;;13.70;4.33;;;;;;;5.14;59.45;101218.80;4993730;56;1136513;-74
2021/04/26 07:51:34;;;;;;;11.93;5.50;;;;;;;5.26;59.11;101219.56;5067160;56;1136426;-73
2021/04/26 07:56:40;;;;;;;28.05;8.73;;;;;;;5.35;59.45;101214.84;5066593;55;1136450;-74
2021/04/26 08:01:47;;;;;;;17.60;5.27;;;;;;;5.39;58.12;101210.68;5067066;56;1136651;-74
2021/04/26 08:06:53;;;;;;;12.15;4.58;;;;;;;5.51;58.63;101203.56;5068803;56;1136820;-75
2021/04/26 08:11:59;;;;;;;3.57;2.20;;;;;;;5.84;58.90;101206.40;5052405;56;1145330;-74
2021/04/26 08:17:04;;;;;;;9.44;3.08;;;;;;;6.08;56.92;101202.27;5059285;57;1134770;-73
2021/04/26 08:22:11;;;;;;;7.37;2.87;;;;;;;6.19;56.65;101200.81;5076073;56;1134403;-73
2021/04/26 08:27:17;;;;;;;5.20;1.67;;;;;;;6.15;55.12;101196.63;5059093;56;1134491;-74
2021/04/26 08:32:23;;;;;;;8.63;3.13;;;;;;;6.09;53.79;101194.78;5027623;57;1134422;-73
2021/04/26 08:37:29;;;;;;;10.10;3.10;;;;;;;6.02;55.24;101197.30;5067203;57;1134469;-73
2021/04/26 08:42:34;;;;;;;6.53;3.07;;;;;;;5.99;54.41;101192.58;5066905;57;1136576;-74
2021/04/26 08:47:41;;;;;;;6.27;3.90;;;;;;;6.00;55.14;101185.55;5080617;56;1134606;-73
2021/04/26 08:52:47;;;;;;;9.47;4.27;;;;;;;6.24;56.65;101179.59;5055432;56;1134391;-73
2021/04/26 08:57:54;;;;;;;2.86;1.46;;;;;;;6.55;53.75;101173.66;5069311;56;1134491;-75
2021/04/26 09:03:03;;;;;;;4.13;1.77;;;;;;;6.74;52.41;101155.16;5124181;56;1143832;-73
2021/04/26 09:08:12;;;;;;;1.17;0.85;;;;;;;6.97;53.47;101159.62;5164993;56;1134828;-72
2021/04/26 09:13:47;;;;;;;1.37;0.70;;;;;;;7.29;52.25;101154.44;5167454;56;1134285;-72
2021/04/26 09:18:59;;;;;;;3.02;1.20;;;;;;;7.61;49.01;101151.36;5155813;56;1134464;-73
2021/04/26 09:24:26;;;;;;;3.13;1.43;;;;;;;7.84;50.37;101140.39;5172946;56;1134776;-73
2021/04/26 09:29:32;;;;;;;4.50;1.73;;;;;;;7.86;49.37;101146.42;5173234;56;1134459;-73
2021/04/26 09:34:54;;;;;;;3.87;1.62;;;;;;;7.87;49.00;101132.79;5168948;56;1134289;-74
2021/04/26 09:40:14;;;;;;;17.67;6.27;;;;;;;7.83;47.83;101130.78;5165562;56;1134678;-74
2021/04/26 09:45:45;;;;;;;3.00;1.43;;;;;;;7.58;43.78;101130.00;5172883;56;1136667;-72
2021/04/26 09:51:09;;;;;;;22.63;6.17;;;;;;;7.39;45.50;101138.52;5170479;56;1134613;-73
2021/04/26 09:56:33;;;;;;;3.23;1.77;;;;;;;7.28;44.43;101136.48;5165271;56;1136846;-73
2021/04/26 10:01:39;;;;;;;2.87;1.67;;;;;;;7.16;43.43;101141.09;5160705;56;1134674;-74
2021/04/26 10:06:44;;;;;;;30.70;9.33;;;;;;;6.90;44.81;101158.23;5160201;56;1134729;-72
2021/04/26 10:11:51;;;;;;;28.77;10.45;;;;;;;6.57;46.46;101173.95;5162111;56;1136962;-74
2021/04/26 10:17:10;;;;;;;9.10;3.67;;;;;;;6.34;47.99;101170.32;5170077;56;1138885;-73
2021/04/26 10:22:18;;;;;;;4.67;2.87;;;;;;;6.31;49.76;101161.27;5171367;56;1134435;-73
2021/04/26 10:27:39;;;;;;;4.63;3.03;;;;;;;6.46;51.88;101149.14;5160508;56;1135087;-73
2021/04/26 10:33:05;;;;;;;4.87;2.67;;;;;;;6.80;54.38;101140.39;5150971;56;1134603;-77
2021/04/26 10:38:39;;;;;;;6.73;2.23;;;;;;;7.24;53.83;101127.52;5063576;57;1134330;-73
2021/04/26 10:43:50;;;;;;;2.17;1.47;;;;;;;7.68;55.58;101116.70;4998325;58;1134538;-72
2021/04/26 10:49:12;;;;;;;2.98;1.40;;;;;;;8.14;52.94;101120.66;5005293;57;1134620;-74
2021/04/26 10:54:22;;;;;;;2.73;2.03;;;;;;;8.31;51.60;101111.78;5007836;57;1134333;-74
2021/04/26 10:59:28;;;;;;;46.53;14.63;;;;;;;8.06;47.05;101121.13;4991951;57;1134734;-72
2021/04/26 11:04:33;;;;;;;7.03;3.33;;;;;;;7.90;48.24;101122.09;5082987;56;1138613;-71
2021/04/26 11:09:41;;;;;;;9.10;3.77;;;;;;;7.88;47.34;101120.00;5126771;56;1134329;-75
2021/04/26 11:14:46;;;;;;;4.07;1.33;;;;;;;7.67;44.68;101126.00;5012006;56;1134364;-73
2021/04/26 11:20:16;;;;;;;1.73;1.63;;;;;;;7.49;46.70;101127.86;4990312;57;1134597;-75
2021/04/26 11:25:34;;;;;;;5.17;1.63;;;;;;;7.50;45.52;101111.60;4955938;57;1134719;-73
2021/04/26 11:30:43;;;;;;;3.10;1.40;;;;;;;7.47;46.09;101099.48;4978552;57;1134641;-74
2021/04/26 11:36:13;;;;;;;4.47;1.10;;;;;;;7.81;47.72;101092.30;4878095;57;1134658;-73
2021/04/26 11:41:19;;;;;;;2.70;1.00;;;;;;;8.23;43.26;101086.36;4902737;59;1134479;-74
2021/04/26 11:46:26;;;;;;;1.00;0.90;;;;;;;8.25;43.79;101079.22;5027183;57;1134412;-74
2021/04/26 11:51:33;;;;;;;2.03;0.80;;;;;;;8.27;41.42;101075.53;5066124;57;1134615;-77
2021/04/26 11:56:39;;;;;;;6.77;2.77;;;;;;;8.20;41.85;101070.26;5066390;57;1134378;-72
2021/04/26 12:01:55;;;;;;;3.02;0.95;;;;;;;8.27;42.99;101061.50;5066239;57;1134498;-76
2021/04/26 12:07:01;;;;;;;0.63;0.63;;;;;;;8.49;43.97;101060.65;5066316;57;1134590;-74
2021/04/26 12:12:10;;;;;;;1.30;0.70;;;;;;;8.90;39.60;101058.58;5066568;57;1134581;-74
2021/04/26 12:17:23;;;;;;;3.80;0.90;;;;;;;9.08;38.35;101044.24;5023930;57;1134660;-74
2021/04/26 12:22:34;;;;;;;1.13;1.03;;;;;;;9.28;36.85;101033.75;4992701;58;1134865;-74
2021/04/26 12:27:40;;;;;;;0.90;0.65;;;;;;;9.45;39.26;101031.73;4991686;58;1134788;-74
2021/04/26 12:32:47;;;;;;;1.17;0.90;;;;;;;9.63;34.78;101039.38;4992065;57;1136632;-74
2021/04/26 12:37:53;;;;;;;0.67;0.67;;;;;;;9.76;34.01;101028.41;5083001;55;1136347;-74
2021/04/26 12:43:03;;;;;;;3.97;0.90;;;;;;;9.98;37.37;101015.44;5145981;55;1136639;-74
2021/04/26 12:48:13;;;;;;;4.30;1.43;;;;;;;10.04;34.68;101012.39;5184610;55;1136428;-74
2021/04/26 12:53:25;;;;;;;5.73;3.10;;;;;;;9.69;34.95;101016.53;5184080;55;1138479;-73
2021/04/26 12:58:35;;;;;;;1.65;1.55;;;;;;;9.36;33.46;101009.02;5185115;55;1134128;-73
2021/04/26 13:03:53;;;;;;;4.40;0.90;;;;;;;9.04;32.73;100995.24;5140858;55;1134498;-75
2021/04/26 13:09:08;;;;;;;1.50;1.03;;;;;;;8.88;34.25;100999.32;5198383;55;1134531;-73
2021/04/26 13:14:28;;;;;;;3.65;0.98;;;;;;;9.01;34.94;100998.09;5189950;55;1134620;-75
2021/04/26 13:19:34;;;;;;;3.70;0.70;;;;;;;9.03;33.95;101007.59;5137793;55;1134636;-74
2021/04/26 13:24:40;;;;;;;1.20;1.10;;;;;;;8.89;35.17;101003.66;5101000;56;1134641;-72
2021/04/26 13:29:47;;;;;;;5.83;1.90;;;;;;;8.85;36.14;101000.01;4974496;56;1134648;-73
2021/04/26 13:34:53;;;;;;;2.60;1.10;;;;;;;8.80;36.83;101002.45;5130886;55;1134831;-74
2021/04/26 13:39:59;;;;;;;2.95;1.47;;;;;;;8.73;37.25;100998.48;5144353;56;1134617;-74
2021/04/26 13:45:06;;;;;;;2.05;1.07;;;;;;;8.83;37.86;100993.51;5110723;56;1134774;-73
2021/04/26 13:50:12;;;;;;;2.70;0.90;;;;;;;9.25;38.77;100982.00;5139686;56;1134618;-73
2021/04/26 13:55:18;;;;;;;7.10;0.83;;;;;;;9.69;37.35;100973.80;5139469;56;1134886;-75
2021/04/26 14:00:26;;;;;;;10.13;4.07;;;;;;;10.02;37.24;100969.84;5139264;56;1136418;-75
2021/04/26 14:05:31;;;;;;;95.83;49.70;;;;;;;10.29;36.43;100968.45;5138963;56;1140707;-73
2021/04/26 14:10:37;;;;;;;272.27;114.33;;;;;;;10.20;35.83;100962.86;5041152;57;1142820;-75
2021/04/26 14:15:43;;;;;;;506.30;215.67;;;;;;;10.34;35.21;100955.30;4999530;58;1147384;-72
2021/04/26 14:20:48;;;;;;;121.30;60.27;;;;;;;10.42;36.63;100945.02;4999139;58;1147146;-74
2021/04/26 14:25:54;;;;;;;4.00;3.70;;;;;;;10.50;34.68;100949.30;4999426;57;1144940;-73
2021/04/26 14:31:01;;;;;;;0.80;0.80;;;;;;;10.57;34.48;100941.28;5005140;58;1138857;-75
2021/04/26 14:36:07;;;;;;;20.77;8.65;;;;;;;10.70;34.57;100939.94;4985236;58;1138622;-74
2021/04/26 14:41:12;;;;;;;5.62;3.35;;;;;;;10.81;33.18;100941.36;5074438;56;1140602;-74
2021/04/26 14:46:18;;;;;;;3.85;1.00;;;;;;;10.77;33.65;100932.41;5074876;56;1138682;-74
2021/04/26 14:51:23;;;;;;;1.10;1.07;;;;;;;10.85;34.72;100930.05;5074608;56;1138488;-73
2021/04/26 14:56:29;;;;;;;2.40;1.33;;;;;;;10.80;32.92;100928.23;5035984;56;1138486;-76
2021/04/26 15:01:35;;;;;;;5.13;4.07;;;;;;;10.92;34.19;100915.44;5074629;56;1138851;-74
2021/04/26 15:06:41;;;;;;;3.60;2.83;;;;;;;11.03;34.00;100912.84;5074682;56;1139148;-74
2021/04/26 15:11:48;;;;;;;5.10;2.60;;;;;;;10.96;33.31;100916.06;5074664;56;1138750;-72
2021/04/26 15:16:54;;;;;;;5.27;2.97;;;;;;;10.77;33.11;100902.84;5074945;56;1138799;-72
2021/04/26 15:22:02;;;;;;;12.48;6.38;;;;;;;10.64;33.26;100901.19;5094359;56;1138935;-75
2021/04/26 15:27:09;;;;;;;41.83;16.07;;;;;;;10.36;34.12;100899.19;5058112;56;1141096;-72
2021/04/26 15:32:15;;;;;;;29.55;8.83;;;;;;;10.07;35.60;100905.64;5074344;56;1142996;-74
2021/04/26 15:37:21;;;;;;;24.77;9.50;;;;;;;10.00;35.91;100914.45;5074503;56;1140541;-73
2021/04/26 15:42:27;;;;;;;48.30;15.27;;;;;;;9.81;36.29;100905.61;5064950;56;1140645;-75
2021/04/26 15:47:33;;;;;;;26.37;10.87;;;;;;;9.64;37.02;100907.23;4999918;57;1140811;-76
2021/04/26 15:52:38;;;;;;;48.80;18.60;;;;;;;9.64;36.68;100905.91;4999799;58;1138895;-73
2021/04/26 15:57:44;;;;;;;16.13;7.00;;;;;;;9.50;37.04;100908.63;5000072;58;1138769;-75
2021/04/26 16:02:49;;;;;;;6.77;2.50;;;;;;;9.37;37.22;100919.16;5000352;57;1136416;-74
2021/04/26 16:07:55;;;;;;;3.87;1.50;;;;;;;9.08;37.76;100933.42;5000724;57;1134367;-76
2021/04/26 16:13:03;;;;;;;6.05;3.00;;;;;;;8.88;38.33;100932.06;5015476;57;1134532;-76
2021/04/26 16:18:09;;;;;;;3.22;1.75;;;;;;;8.88;38.96;100911.43;5007790;57;1134730;-76
2021/04/26 16:23:15;;;;;;;12.50;4.40;;;;;;;9.13;39.31;100904.48;4999200;58;1134164;-75
2021/04/26 16:28:21;;;;;;;7.47;2.53;;;;;;;9.30;38.98;100893.30;5003306;57;1136824;-71
2021/04/26 16:33:27;;;;;;;4.37;2.90;;;;;;;9.45;38.77;100893.59;5162356;56;1134149;-73
2021/04/26 16:38:33;;;;;;;5.80;2.03;;;;;;;9.50;38.25;100891.47;5160631;56;1134093;-72
2021/04/26 16:43:38;;;;;;;1.10;1.10;;;;;;;9.53;37.96;100885.52;5160755;56;1134747;-73
2021/04/26 16:48:45;;;;;;;19.50;7.83;;;;;;;9.50;37.66;100882.23;5160724;56;1134644;-74
2021/04/26 16:53:51;;;;;;;9.20;3.50;;;;;;;9.33;37.35;100882.03;5160312;56;1136742;-75
2021/04/26 16:58:56;;;;;;;5.20;2.87;;;;;;;9.19;37.10;100882.11;5160729;56;1134546;-71
2021/04/26 17:04:03;;;;;;;116.28;33.98;;;;;;;9.06;37.17;100878.11;5134166;56;1134613;-72
2021/04/26 17:09:09;;;;;;;26.20;9.40;;;;;;;8.89;37.59;100882.31;5133310;55;1140878;-73
2021/04/26 17:14:14;;;;;;;69.35;34.20;;;;;;;8.79;37.89;100875.95;5153244;56;1136410;-73
2021/04/26 17:19:20;;;;;;;71.17;26.55;;;;;;;8.68;38.41;100876.66;5160023;56;1138724;-72
2021/04/26 17:24:27;;;;;;;21.17;12.97;;;;;;;8.62;39.08;100880.14;5159879;56;1138457;-73
2021/04/26 17:29:32;;;;;;;15.03;8.73;;;;;;;8.61;39.40;100875.81;5159642;56;1138425;-74
2021/04/26 17:34:38;;;;;;;7.37;2.00;;;;;;;8.53;39.72;100877.63;5160196;56;1136741;-74
2021/04/26 17:39:44;;;;;;;28.70;10.87;;;;;;;8.48;39.93;100874.90;5160084;56;1134569;-73
2021/04/26 17:44:50;;;;;;;72.10;45.20;;;;;;;8.49;40.34;100877.44;5159729;56;1138826;-74
2021/04/26 17:49:56;;;;;;;30.27;12.87;;;;;;;8.40;40.07;100881.98;5159667;56;1138721;-74
2021/04/26 17:55:03;;;;;;;135.83;51.57;;;;;;;8.35;40.48;100875.67;5159683;56;1138755;-74
2021/04/26 18:00:11;;;;;;;113.22;42.65;;;;;;;8.41;41.08;100874.42;5159658;56;1140835;-72
2021/04/26 18:05:19;;;;;;;97.37;43.30;;;;;;;8.52;41.46;100879.05;5159560;56;1140510;-72
2021/04/26 18:10:25;;;;;;;41.23;16.40;;;;;;;8.60;41.66;100880.23;5159361;56;1138935;-74
2021/04/26 18:15:31;;;;;;;63.80;21.40;;;;;;;8.61;41.83;100876.66;5159663;56;1138238;-73
2021/04/26 18:20:37;;;;;;;74.93;24.20;;;;;;;8.53;42.68;100882.91;5156200;56;1138544;-72
2021/04/26 18:25:42;;;;;;;42.70;14.63;;;;;;;8.39;42.76;100882.92;5155914;56;1138563;-71
2021/04/26 18:30:48;;;;;;;82.60;24.83;;;;;;;8.31;43.17;100889.09;5156275;56;1138727;-74
2021/04/26 18:35:54;;;;;;;53.10;17.93;;;;;;;8.26;43.54;100895.11;5157504;56;1138804;-72
2021/04/26 18:41:03;;;;;;;45.37;15.57;;;;;;;8.22;43.70;100895.80;5157696;56;1138764;-73
2021/04/26 18:46:08;;;;;;;61.23;19.27;;;;;;;8.18;44.10;100897.39;5143814;56;1139114;-72
2021/04/26 18:51:15;;;;;;;143.35;41.88;;;;;;;8.08;44.33;100897.13;5134960;56;1138829;-74
2021/04/26 18:56:21;;;;;;;155.65;53.52;;;;;;;7.88;44.72;100904.05;5134730;56;1140896;-73
2021/04/26 19:01:27;;;;;;;115.33;41.30;;;;;;;7.47;44.97;100909.16;5134740;56;1140640;-71
2021/04/26 19:06:33;;;;;;;103.53;40.20;;;;;;;7.14;45.47;100915.42;5125582;56;1140839;-73
2021/04/26 19:11:53;;;;;;;108.23;40.73;;;;;;;6.84;46.12;100918.47;4994082;57;1140646;-69
2021/04/26 19:16:55;;;;;;;109.50;43.43;;;;;;;6.81;46.87;100918.63;4939380;57;1141078;-71
2021/04/26 19:22:04;;;;;;;114.30;45.87;;;;;;;6.77;47.06;100917.95;5089862;55;1140913;-74
2021/04/26 19:27:13;;;;;;;;;;;;;;;6.82;47.37;100915.07;5136725;55;1140826;-72
2021/04/26 19:32:23;;;;;;;158.72;55.58;;;;;;;6.80;47.40;100917.78;5146489;57;971989;-71
2021/04/26 19:37:28;;;;;;;197.13;72.70;;;;;;;6.70;47.58;100917.45;5131423;57;1138784;-74
2021/04/26 19:42:34;;;;;;;178.17;71.73;;;;;;;6.73;47.46;100920.81;5086148;56;1140674;-74
2021/04/26 19:47:41;;;;;;;117.27;38.03;;;;;;;6.65;47.74;100921.25;5065623;57;1140689;-72
2021/04/26 19:52:47;;;;;;;144.03;50.67;;;;;;;6.59;47.93;100924.20;5102661;56;1140755;-70
2021/04/26 19:57:55;;;;;;;194.00;63.67;;;;;;;6.49;47.89;100922.55;5077254;57;1140661;-74
2021/04/26 20:03:07;;;;;;;171.82;56.30;;;;;;;6.44;48.09;100930.30;5087086;57;1140616;-75
2021/04/26 20:08:13;;;;;;;104.70;35.90;;;;;;;6.36;48.24;100929.41;5073725;57;1140836;-72
2021/04/26 20:13:19;;;;;;;94.58;37.64;;;;;;;6.31;48.29;100922.23;5077300;57;1140817;-74
2021/04/26 20:18:25;;;;;;;68.00;20.93;;;;;;;6.30;48.48;100923.16;5078067;56;1138550;-75
2021/04/26 20:23:31;;;;;;;44.57;18.73;;;;;;;5.97;48.31;100929.25;5077303;57;1138771;-72
2021/04/26 20:28:37;;;;;;;35.03;11.40;;;;;;;5.63;48.79;100930.59;5077646;57;1138773;-74
2021/04/26 20:33:43;;;;;;;57.97;16.83;;;;;;;5.44;49.58;100933.27;5077096;56;1138693;-74
2021/04/26 20:38:48;;;;;;;44.27;14.50;;;;;;;5.23;49.86;100935.17;5077326;57;1138462;-75
2021/04/26 20:43:54;;;;;;;71.27;26.57;;;;;;;5.22;50.69;100941.34;5077720;57;1138547;-73
2021/04/26 20:49:00;;;;;;;48.87;16.17;;;;;;;5.27;50.73;100944.59;5031990;56;1138410;-74
2021/04/26 20:54:06;;;;;;;52.73;21.83;;;;;;;5.26;50.83;100942.89;5020318;56;1138696;-72
2021/04/26 20:59:11;;;;;;;67.37;26.07;;;;;;;5.14;50.95;100940.88;5129269;56;1140817;-71
2021/04/26 21:04:17;;;;;;;71.77;29.30;;;;;;;5.17;51.26;100939.88;5060350;57;1138519;-71
2021/04/26 21:09:23;;;;;;;49.80;18.02;;;;;;;5.12;51.13;100943.17;5060153;57;1138904;-71
2021/04/26 21:14:29;;;;;;;61.00;21.20;;;;;;;4.99;50.96;100942.92;5059608;57;1138734;-69
2021/04/26 21:19:34;;;;;;;137.33;49.93;;;;;;;4.89;51.47;100953.43;5059697;57;1138612;-72
2021/04/26 21:24:40;;;;;;;111.83;36.83;;;;;;;4.71;51.55;100952.55;5059671;57;1140651;-72
2021/04/26 21:29:46;;;;;;;57.88;19.48;;;;;;;4.63;51.66;100957.73;5059444;57;1140837;-71
2021/04/26 21:34:52;;;;;;;43.40;13.93;;;;;;;4.51;51.71;100948.67;5059703;57;1138589;-71
2021/04/26 21:39:58;;;;;;;86.60;29.13;;;;;;;4.37;51.86;100959.78;5059808;57;1138878;-70
2021/04/26 21:45:05;;;;;;;33.83;12.43;;;;;;;4.30;52.16;100953.56;5059884;57;1138498;-72
2021/04/26 21:50:11;;;;;;;22.03;7.47;;;;;;;4.14;52.19;100953.39;5067589;56;1138954;-72
2021/04/26 21:55:17;;;;;;;17.75;6.12;;;;;;;4.07;52.68;100953.28;5126297;56;1136890;-71
2021/04/26 22:00:27;;;;;;;25.00;9.45;;;;;;;3.99;53.00;100954.91;5132792;56;1136829;-71
2021/04/26 22:05:32;;;;;;;23.93;8.60;;;;;;;3.91;53.05;100954.86;5139585;54;1136589;-73
2021/04/26 22:10:38;;;;;;;22.60;6.43;;;;;;;3.84;53.41;100952.50;5139779;56;1136609;-74
2021/04/26 22:15:45;;;;;;;21.83;8.00;;;;;;;3.95;53.67;100952.06;5139795;56;1136462;-70
2021/04/26 22:20:51;;;;;;;23.62;9.90;;;;;;;4.03;53.71;100953.87;5139877;56;1136467;-73
2021/04/26 22:25:57;;;;;;;27.10;11.05;;;;;;;4.05;54.07;100948.11;5139947;56;1136622;-72
2021/04/26 22:31:03;;;;;;;24.90;10.63;;;;;;;4.06;54.28;100958.13;5139894;56;1138524;-74
2021/04/26 22:36:12;;;;;;;45.05;15.25;;;;;;;4.10;54.40;100957.08;5155942;56;1139015;-72
2021/04/26 22:41:17;;;;;;;33.00;12.80;;;;;;;4.09;54.60;100954.07;5129578;56;1138487;-73
2021/04/26 22:46:23;;;;;;;24.00;10.00;;;;;;;4.11;55.43;100949.17;5139734;56;1139105;-73
2021/04/26 22:51:28;;;;;;;24.43;10.13;;;;;;;4.07;55.21;100951.52;5139622;56;1138816;-72
2021/04/26 22:56:34;;;;;;;28.97;10.10;;;;;;;4.03;55.35;100955.18;5139485;56;1138846;-73
2021/04/26 23:01:40;;;;;;;27.77;9.73;;;;;;;4.03;55.42;100953.02;5139516;56;1138981;-71
2021/04/26 23:06:46;;;;;;;30.20;11.70;;;;;;;4.09;55.55;100952.30;5139502;56;1136618;-71
2021/04/26 23:11:52;;;;;;;25.40;11.43;;;;;;;4.10;55.49;100954.01;5139460;56;1138787;-70
2021/04/26 23:16:58;;;;;;;26.00;11.03;;;;;;;4.02;55.26;100956.09;5139520;56;1138892;-71
2021/04/26 23:22:03;;;;;;;25.30;11.83;;;;;;;3.97;55.41;100946.77;5139848;55;1138976;-73